Time;durP1;ratioP1;P1;durP2;ratioP2;P2;SDS_P1;SDS_P2;PMS_P1;PMS_P2;Temp;Humidity;BMP_temperature;BMP_pressure;BME280_temperature;BME280_humidity;BME280_pressure;Samples;Min_cycle;Max_cycle;Signal;HPM_P1;HPM_P2
2023/06/15 00:02:15;;;;;;;9.32;5.63;;;10.50;99.90;;;;;;5116962;27;20047;-71
2023/06/15 00:04:41;;;;;;;7.53;5.35;;;10.40;99.90;;;;;;5135274;27;20046;-71
2023/06/15 00:07:07;;;;;;;8.88;6.35;;;10.40;99.90;;;;;;5135459;27;20484;-71
2023/06/15 00:09:33;;;;;;;12.15;5.82;;;10.30;99.90;;;;;;5135447;27;20460;-71
2023/06/15 00:11:58;;;;;;;7.65;6.03;;;10.30;99.90;;;;;;5117518;28;20037;-71
2023/06/15 00:14:24;;;;;;;16.42;6.70;;;10.30;99.90;;;;;;5118132;28;20468;-71
2023/06/15 00:16:52;;;;;;;6.93;5.40;;;10.30;99.90;;;;;;5135387;28;20029;-71
2023/06/15 00:19:21;;;;;;;7.15;6.38;;;10.30;99.90;;;;;;5113507;28;20130;-71
2023/06/15 00:21:48;;;;;;;;;;;10.20;99.90;;;;;;5115626;28;20444;-72
2023/06/15 00:24:16;;;;;;;6.88;5.53;;;10.20;99.90;;;;;;5114440;28;19903;-71
2023/06/15 00:26:46;;;;;;;8.80;6.03;;;10.10;99.90;;;;;;5114909;28;20023;-71
2023/06/15 00:29:12;;;;;;;7.35;5.65;;;10.10;99.90;;;;;;5113520;28;20152;-72
2023/06/15 00:31:37;;;;;;;7.63;5.97;;;10.10;99.90;;;;;;5113081;28;20075;-71
2023/06/15 00:34:03;;;;;;;8.13;5.63;;;10.00;99.90;;;;;;5114780;28;20444;-71
2023/06/15 00:36:29;;;;;;;7.80;5.88;;;10.00;99.90;;;;;;5113450;28;20385;-71
2023/06/15 00:38:54;;;;;;;10.90;6.10;;;9.90;99.90;;;;;;5114503;28;20039;-71
2023/06/15 00:41:21;;;;;;;6.70;5.97;;;9.90;99.90;;;;;;5114135;28;20043;-71
2023/06/15 00:43:46;;;;;;;11.13;5.65;;;9.90;99.90;;;;;;5114941;28;20032;-71
2023/06/15 00:46:13;;;;;;;8.20;6.07;;;9.90;99.90;;;;;;5113963;28;20040;-71
2023/06/15 00:48:39;;;;;;;7.28;5.50;;;9.90;99.90;;;;;;5114772;28;20024;-71
2023/06/15 00:51:05;;;;;;;8.85;6.05;;;9.90;99.90;;;;;;5118621;28;20046;-71
2023/06/15 00:53:31;;;;;;;9.13;6.32;;;9.90;99.90;;;;;;5118836;28;20085;-71
2023/06/15 00:55:57;;;;;;;11.13;6.80;;;9.90;99.90;;;;;;5119106;28;20040;-71
2023/06/15 00:58:24;;;;;;;8.18;6.20;;;9.90;99.90;;;;;;5119702;27;20045;-71
2023/06/15 01:00:53;;;;;;;9.68;6.53;;;9.80;99.90;;;;;;5117743;28;20046;-71
2023/06/15 01:03:20;;;;;;;7.43;6.07;;;9.90;99.90;;;;;;5118535;28;20081;-71
2023/06/15 01:05:52;;;;;;;13.80;6.53;;;9.80;99.90;;;;;;5118855;27;20114;-71
2023/06/15 01:08:20;;;;;;;8.10;6.15;;;9.80;99.90;;;;;;5118335;28;20389;-71
2023/06/15 01:10:46;;;;;;;9.25;6.35;;;9.80;99.90;;;;;;5117458;28;20046;-72
2023/06/15 01:13:12;;;;;;;9.93;5.75;;;9.80;99.90;;;;;;5118617;28;20097;-71
2023/06/15 01:15:41;;;;;;;8.80;6.75;;;9.80;99.90;;;;;;5119479;28;20032;-71
2023/06/15 01:18:08;;;;;;;7.88;5.63;;;9.80;99.90;;;;;;5117950;28;20032;-71
2023/06/15 01:20:44;;;;;;;10.05;7.00;;;9.70;99.90;;;;;;5135961;27;20138;-71
2023/06/15 01:23:21;;;;;;;9.18;6.85;;;9.70;99.90;;;;;;5140728;27;20024;-71
2023/06/15 01:25:49;;;;;;;9.98;6.47;;;9.70;99.90;;;;;;5140604;27;20035;-71
2023/06/15 01:28:20;;;;;;;10.25;6.55;;;9.70;99.90;;;;;;5121761;27;20065;-71
2023/06/15 01:30:52;;;;;;;6.90;6.20;;;9.70;99.90;;;;;;5121631;27;20047;-71
2023/06/15 01:33:18;;;;;;;11.18;6.25;;;9.70;99.90;;;;;;5121594;27;20384;-71
2023/06/15 01:35:44;;;;;;;8.73;5.57;;;9.70;99.90;;;;;;5121244;27;20031;-71
2023/06/15 01:38:10;;;;;;;7.68;6.55;;;9.60;99.90;;;;;;5139837;27;20029;-71
2023/06/15 01:40:47;;;;;;;8.43;6.60;;;9.60;99.90;;;;;;5120848;27;20093;-71
2023/06/15 01:43:16;;;;;;;8.35;5.97;;;9.50;99.90;;;;;;5139702;27;20031;-71
2023/06/15 01:45:44;;;;;;;9.20;6.88;;;9.50;99.90;;;;;;5139309;27;20529;-71
2023/06/15 01:48:10;;;;;;;7.75;6.00;;;9.50;99.90;;;;;;5121442;27;20076;-71
2023/06/15 01:50:38;;;;;;;10.00;6.88;;;9.40;99.90;;;;;;5121385;27;20035;-71
2023/06/15 01:53:04;;;;;;;7.28;6.10;;;9.40;99.90;;;;;;5139412;27;20032;-71
2023/06/15 01:55:30;;;;;;;8.57;6.00;;;9.40;99.90;;;;;;5139646;27;20027;-71
2023/06/15 01:57:56;;;;;;;8.35;6.43;;;9.40;99.90;;;;;;5139814;27;20457;-71
2023/06/15 02:00:23;;;;;;;8.23;5.85;;;9.40;99.90;;;;;;5120810;27;20047;-71
2023/06/15 02:02:49;;;;;;;10.10;6.57;;;9.40;99.90;;;;;;5139021;27;20031;-71
2023/06/15 02:05:15;;;;;;;8.57;6.82;;;9.40;99.90;;;;;;5121979;27;20027;-71
2023/06/15 02:07:41;;;;;;;8.88;6.40;;;9.30;99.90;;;;;;5121666;27;20061;-71
2023/06/15 02:10:07;;;;;;;10.20;6.30;;;9.30;99.90;;;;;;5121863;27;20142;-72
2023/06/15 02:12:33;;;;;;;9.25;6.45;;;9.30;99.90;;;;;;5121349;27;20389;-71
2023/06/15 02:15:02;;;;;;;11.35;7.07;;;9.30;99.90;;;;;;5121262;27;20031;-71
2023/06/15 02:17:39;;;;;;;8.82;6.28;;;9.30;99.90;;;;;;5139041;27;20055;-71
2023/06/15 02:20:09;;;;;;;8.93;6.03;;;9.30;99.90;;;;;;5120315;27;20095;-71
2023/06/15 02:22:36;;;;;;;8.30;6.28;;;9.30;99.90;;;;;;5120287;27;20039;-71
2023/06/15 02:25:01;;;;;;;7.85;6.25;;;9.30;99.90;;;;;;5139071;27;20026;-71
2023/06/15 02:27:27;;;;;;;7.25;5.50;;;9.30;99.90;;;;;;5120317;27;20031;-71
2023/06/15 02:29:53;;;;;;;9.57;6.45;;;9.20;99.90;;;;;;5120141;27;20038;-71
2023/06/15 02:32:31;;;;;;;10.27;6.20;;;9.20;99.90;;;;;;5120165;27;20039;-71
2023/06/15 02:34:58;;;;;;;7.28;6.00;;;9.20;99.90;;;;;;5138316;27;20024;-71
2023/06/15 02:37:24;;;;;;;11.30;6.80;;;9.10;99.90;;;;;;5120485;27;20118;-71
2023/06/15 02:39:49;;;;;;;7.95;6.28;;;9.10;99.90;;;;;;5119711;27;20065;-71
2023/06/15 02:42:15;;;;;;;7.68;5.63;;;9.10;99.90;;;;;;5120156;27;20054;-71
2023/06/15 02:44:41;;;;;;;10.25;6.10;;;9.10;99.90;;;;;;5119806;27;20031;-71
2023/06/15 02:47:06;;;;;;;9.48;7.03;;;9.00;99.90;;;;;;5120030;27;20027;-71
2023/06/15 02:49:32;;;;;;;12.57;6.30;;;9.00;99.90;;;;;;5138099;27;20480;-71
2023/06/15 02:51:58;;;;;;;8.35;6.45;;;9.00;99.90;;;;;;5138541;27;20053;-71
2023/06/15 02:54:23;;;;;;;9.77;6.47;;;8.90;99.90;;;;;;5138841;27;20061;-70
2023/06/15 02:56:51;;;;;;;7.68;6.60;;;8.90;99.90;;;;;;5121037;27;20027;-71
2023/06/15 02:59:17;;;;;;;9.27;6.68;;;8.90;99.90;;;;;;5139544;27;20095;-71
2023/06/15 03:01:43;;;;;;;8.20;6.60;;;8.90;99.90;;;;;;5139340;27;20038;-70
2023/06/15 03:04:09;;;;;;;10.13;6.55;;;8.90;99.90;;;;;;5120505;27;20035;-71
2023/06/15 03:06:38;;;;;;;8.20;6.78;;;8.90;99.90;;;;;;5138514;27;20088;-71
2023/06/15 03:09:06;;;;;;;10.32;6.35;;;8.90;99.90;;;;;;5120562;27;20031;-71
2023/06/15 03:11:32;;;;;;;9.57;6.43;;;8.90;99.90;;;;;;5138159;27;20031;-71
2023/06/15 03:13:58;;;;;;;8.45;6.35;;;8.90;99.90;;;;;;5137577;27;20745;-71
2023/06/15 03:16:25;;;;;;;7.68;6.30;;;8.90;99.90;;;;;;5118990;27;20057;-71
2023/06/15 03:18:52;;;;;;;8.40;6.68;;;8.90;99.90;;;;;;5137225;27;20043;-71
2023/06/15 03:21:20;;;;;;;12.55;8.23;;;8.90;99.90;;;;;;5120362;27;20419;-72
2023/06/15 03:23:45;;;;;;;13.30;7.22;;;9.00;99.90;;;;;;5119417;27;20050;-72
2023/06/15 03:26:11;;;;;;;8.90;6.75;;;9.00;99.90;;;;;;5120348;27;20035;-72
2023/06/15 03:28:38;;;;;;;11.85;6.63;;;9.00;99.90;;;;;;5138730;27;20019;-72
2023/06/15 03:31:04;;;;;;;12.50;6.55;;;9.00;99.90;;;;;;5120253;27;20035;-71
2023/06/15 03:33:30;;;;;;;8.40;6.30;;;9.10;99.90;;;;;;5120296;27;20422;-71
2023/06/15 03:35:57;;;;;;;11.10;6.88;;;9.10;99.90;;;;;;5119906;27;20038;-71
2023/06/15 03:38:23;;;;;;;8.60;6.63;;;9.10;99.90;;;;;;5139002;27;20105;-71
2023/06/15 03:40:49;;;;;;;7.50;6.70;;;9.10;99.90;;;;;;5119530;27;20031;-71
2023/06/15 03:43:15;;;;;;;12.52;6.95;;;9.20;99.90;;;;;;5120033;27;20088;-71
2023/06/15 03:45:41;;;;;;;9.70;6.47;;;9.20;99.90;;;;;;5137977;27;20027;-71
2023/06/15 03:48:07;;;;;;;8.73;6.72;;;9.30;99.90;;;;;;5120143;27;20031;-71
2023/06/15 03:50:33;;;;;;;8.02;6.57;;;9.30;99.90;;;;;;5139088;27;20087;-71
2023/06/15 03:52:58;;;;;;;7.32;5.72;;;9.40;99.90;;;;;;5138186;27;20035;-71
2023/06/15 03:55:25;;;;;;;9.55;6.40;;;9.40;99.90;;;;;;5137501;27;20069;-71
2023/06/15 03:57:51;;;;;;;8.30;6.07;;;9.50;99.90;;;;;;5118617;27;20079;-71
2023/06/15 04:00:16;;;;;;;10.27;5.95;;;9.50;99.90;;;;;;5137247;27;20110;-73
2023/06/15 04:02:42;;;;;;;7.15;5.85;;;9.50;99.90;;;;;;5137200;27;20042;-71
2023/06/15 04:05:09;;;;;;;14.45;6.35;;;9.60;99.90;;;;;;5136538;27;20039;-71
2023/06/15 04:07:35;;;;;;;9.68;6.30;;;9.60;99.90;;;;;;5118471;27;20035;-71
2023/06/15 04:10:02;;;;;;;10.45;5.80;;;9.70;99.90;;;;;;5137027;27;20524;-69
2023/06/15 04:12:28;;;;;;;11.88;6.13;;;9.70;99.90;;;;;;5136949;28;20074;-68
2023/06/15 04:14:53;;;;;;;8.48;6.60;;;9.80;99.90;;;;;;5117331;28;20039;-68
2023/06/15 04:17:19;;;;;;;8.95;6.18;;;9.80;99.90;;;;;;5134722;28;20055;-68
2023/06/15 04:19:46;;;;;;;7.95;6.40;;;9.80;99.90;;;;;;5116344;28;20053;-68
2023/06/15 04:22:11;;;;;;;7.13;6.05;;;9.90;99.90;;;;;;5134731;28;20039;-68
2023/06/15 04:24:37;;;;;;;7.88;6.20;;;9.90;99.90;;;;;;5135001;27;20358;-68
2023/06/15 04:27:03;;;;;;;8.60;6.25;;;10.00;99.90;;;;;;5139287;27;20031;-68
2023/06/15 04:29:30;;;;;;;9.40;5.95;;;10.10;99.90;;;;;;5120516;27;20034;-68
2023/06/15 04:31:59;;;;;;;8.73;5.90;;;10.20;99.90;;;;;;5139045;27;20031;-68
2023/06/15 04:34:26;;;;;;;11.10;6.20;;;10.20;99.90;;;;;;5120359;27;20039;-68
2023/06/15 04:36:52;;;;;;;9.80;5.75;;;10.30;99.90;;;;;;5138743;27;20031;-68
2023/06/15 04:39:18;;;;;;;6.85;5.30;;;10.40;99.90;;;;;;5138959;27;20066;-69
2023/06/15 04:41:44;;;;;;;9.27;5.63;;;10.40;99.90;;;;;;5138554;27;20062;-68
2023/06/15 04:44:10;;;;;;;7.10;5.47;;;10.50;99.90;;;;;;5138545;27;20479;-69
2023/06/15 04:46:38;;;;;;;8.18;5.85;;;10.60;99.90;;;;;;5138502;27;20426;-69
2023/06/15 04:49:03;;;;;;;7.28;5.45;;;10.60;99.90;;;;;;5120025;27;20035;-68
2023/06/15 04:51:30;;;;;;;6.80;5.55;;;10.70;99.90;;;;;;5138164;27;20392;-68
2023/06/15 04:53:56;;;;;;;11.77;5.78;;;10.80;99.90;;;;;;5138295;27;20027;-68
2023/06/15 04:56:22;;;;;;;7.57;5.55;;;10.80;99.90;;;;;;5138306;27;20528;-68
2023/06/15 04:58:48;;;;;;;5.97;5.30;;;10.90;99.90;;;;;;5138145;27;20092;-68
2023/06/15 05:01:14;;;;;;;9.07;5.07;;;11.00;99.90;;;;;;5137734;27;20039;-68
2023/06/15 05:03:40;;;;;;;7.97;5.57;;;11.10;99.90;;;;;;5119966;27;20031;-69
2023/06/15 05:06:07;;;;;;;8.13;4.93;;;11.20;99.90;;;;;;5137966;27;20032;-68
2023/06/15 05:08:33;;;;;;;8.88;5.15;;;11.30;99.90;;;;;;5119223;27;20038;-69
2023/06/15 05:10:59;;;;;;;6.50;5.05;;;11.50;99.90;;;;;;5137706;27;20023;-70
2023/06/15 05:13:25;;;;;;;8.13;5.15;;;11.60;99.90;;;;;;5137915;27;20043;-71
2023/06/15 05:15:52;;;;;;;6.53;4.70;;;11.60;99.90;;;;;;5119407;27;20047;-70
2023/06/15 05:18:18;;;;;;;5.20;4.38;;;11.90;99.90;;;;;;5119281;27;20031;-69
2023/06/15 05:20:44;;;;;;;6.13;4.90;;;11.90;99.90;;;;;;5137059;27;20438;-70
2023/06/15 05:23:09;;;;;;;8.20;5.75;;;12.00;99.90;;;;;;5137960;27;20028;-70
2023/06/15 05:25:35;;;;;;;9.77;5.13;;;12.10;99.90;;;;;;5137778;27;20074;-69
2023/06/15 05:28:00;;;;;;;8.02;5.75;;;12.30;99.90;;;;;;5119161;27;20479;-68
2023/06/15 05:30:26;;;;;;;9.02;5.32;;;12.50;99.90;;;;;;5137437;27;20043;-72
2023/06/15 05:32:55;;;;;;;8.77;5.30;;;12.60;99.90;;;;;;5137534;27;20023;-69
2023/06/15 05:35:21;;;;;;;7.30;4.75;;;12.80;99.90;;;;;;5119743;27;20361;-68
2023/06/15 05:37:47;;;;;;;11.48;5.20;;;13.00;99.90;;;;;;5137488;27;20027;-69
2023/06/15 05:40:13;;;;;;;9.45;5.00;;;13.10;99.90;;;;;;5137243;27;20030;-69
2023/06/15 05:42:39;;;;;;;10.25;6.18;;;13.30;99.90;;;;;;5136985;27;20035;-68
2023/06/15 05:45:05;;;;;;;9.27;5.03;;;13.50;99.90;;;;;;5119233;27;20031;-69
2023/06/15 05:47:32;;;;;;;10.05;5.20;;;13.60;99.90;;;;;;5118717;27;20392;-69
2023/06/15 05:49:58;;;;;;;10.43;5.78;;;13.80;99.90;;;;;;5137084;27;20038;-69
2023/06/15 05:52:23;;;;;;;9.50;5.20;;;14.00;99.90;;;;;;5137055;27;20035;-68
2023/06/15 05:54:49;;;;;;;8.30;5.28;;;14.10;99.90;;;;;;5118641;27;20027;-68
2023/06/15 05:57:15;;;;;;;10.15;5.93;;;14.30;99.90;;;;;;5136669;27;20027;-68
2023/06/15 05:59:41;;;;;;;11.68;5.63;;;14.40;99.90;;;;;;5137185;27;20031;-68
2023/06/15 06:02:07;;;;;;;8.40;5.10;;;14.60;99.90;;;;;;5136898;27;20534;-68
2023/06/15 06:04:34;;;;;;;7.35;5.03;;;14.70;99.90;;;;;;5136897;27;20035;-68
2023/06/15 06:07:00;;;;;;;10.50;5.47;;;14.80;99.90;;;;;;5118317;27;20126;-68
2023/06/15 06:09:26;;;;;;;7.90;5.10;;;14.90;99.90;;;;;;5136470;27;20063;-69
2023/06/15 06:11:52;;;;;;;8.25;5.35;;;15.00;99.90;;;;;;5136734;27;20035;-69
2023/06/15 06:14:17;;;;;;;10.23;5.07;;;15.10;99.90;;;;;;5136699;27;20027;-68
2023/06/15 06:16:43;;;;;;;8.25;5.53;;;15.30;99.90;;;;;;5136216;27;20038;-68
2023/06/15 06:19:09;;;;;;;10.15;5.28;;;15.60;99.90;;;;;;5117910;27;20051;-68
2023/06/15 06:21:35;;;;;;;8.13;5.00;;;16.20;99.90;;;;;;5136503;27;20071;-68
2023/06/15 06:24:02;;;;;;;8.07;4.78;;;16.90;99.90;;;;;;5118114;27;20061;-69
2023/06/15 06:26:28;;;;;;;5.32;4.50;;;17.50;99.90;;;;;;5136567;27;20106;-69
2023/06/15 06:28:55;;;;;;;10.02;4.25;;;18.00;99.90;;;;;;5136376;27;20023;-69
2023/06/15 06:31:21;;;;;;;7.45;4.60;;;18.30;99.90;;;;;;5136874;27;20039;-69
2023/06/15 06:33:46;;;;;;;6.60;4.07;;;18.60;99.90;;;;;;5136348;27;20043;-67
2023/06/15 06:36:12;;;;;;;6.55;4.47;;;18.90;99.90;;;;;;5117850;27;20465;-67
2023/06/15 06:38:38;;;;;;;7.57;5.05;;;19.20;99.90;;;;;;5135906;27;20065;-67
2023/06/15 06:41:04;;;;;;;5.43;4.43;;;19.30;99.90;;;;;;5136324;27;20114;-67
2023/06/15 06:43:29;;;;;;;6.15;4.70;;;19.40;99.90;;;;;;5136133;27;20027;-67
2023/06/15 06:45:55;;;;;;;5.05;4.63;;;19.40;99.90;;;;;;5135871;27;20047;-67
2023/06/15 06:48:21;;;;;;;7.85;4.25;;;19.40;99.90;;;;;;5135674;27;20059;-67
2023/06/15 06:50:46;;;;;;;5.72;4.18;;;19.40;99.90;;;;;;5136099;27;20035;-67
2023/06/15 06:53:12;;;;;;;6.70;5.00;;;19.60;99.90;;;;;;5135947;27;20027;-67
2023/06/15 06:55:38;;;;;;;4.50;4.10;;;19.80;99.90;;;;;;5135927;27;20035;-67
2023/06/15 06:58:04;;;;;;;8.27;4.50;;;19.90;99.90;;;;;;5117456;27;20499;-67
2023/06/15 07:00:30;;;;;;;5.70;4.53;;;20.00;99.90;;;;;;5135500;27;20365;-67
2023/06/15 07:02:57;;;;;;;6.38;4.40;;;20.10;99.90;;;;;;5135732;27;20375;-67
2023/06/15 07:05:23;;;;;;;7.55;4.47;;;20.00;99.60;;;;;;5135889;27;20084;-67
2023/06/15 07:07:48;;;;;;;4.60;3.88;;;20.20;99.80;;;;;;5117188;27;20035;-67
2023/06/15 07:10:14;;;;;;;4.93;3.90;;;20.20;99.60;;;;;;5135278;27;20127;-67
2023/06/15 07:12:40;;;;;;;6.40;4.03;;;20.30;99.90;;;;;;5135540;27;20026;-68
2023/06/15 07:15:06;;;;;;;5.45;3.75;;;20.50;98.50;;;;;;5135491;27;20027;-67
2023/06/15 07:17:32;;;;;;;4.85;4.10;;;20.80;98.60;;;;;;5135154;27;20045;-67
2023/06/15 07:19:58;;;;;;;10.55;4.13;;;21.10;96.30;;;;;;5135035;27;20484;-68
2023/06/15 07:22:24;;;;;;;6.68;4.68;;;21.40;95.70;;;;;;5135541;27;20035;-67
2023/06/15 07:24:50;;;;;;;6.03;3.95;;;21.60;95.20;;;;;;5135394;27;20034;-67
2023/06/15 07:27:18;;;;;;;5.85;4.28;;;21.70;94.20;;;;;;5116579;27;20037;-68
2023/06/15 07:29:44;;;;;;;4.65;4.10;;;21.80;94.60;;;;;;5135199;27;20109;-68
2023/06/15 07:32:10;;;;;;;7.03;4.00;;;21.90;94.40;;;;;;5135289;27;20151;-67
2023/06/15 07:34:36;;;;;;;4.10;3.65;;;22.20;93.90;;;;;;5135276;27;20124;-67
2023/06/15 07:37:02;;;;;;;9.48;4.60;;;22.30;92.30;;;;;;5135142;27;20424;-68
2023/06/15 07:39:27;;;;;;;7.97;3.80;;;22.10;91.00;;;;;;5135345;27;20074;-68
2023/06/15 07:41:53;;;;;;;8.38;4.20;;;22.20;92.10;;;;;;5116672;27;20039;-68
2023/06/15 07:44:18;;;;;;;6.53;4.00;;;22.40;92.50;;;;;;5134669;27;20088;-67
2023/06/15 07:46:44;;;;;;;5.13;3.90;;;22.40;92.00;;;;;;5134934;27;20023;-67
2023/06/15 07:49:10;;;;;;;5.00;3.70;;;22.60;91.70;;;;;;5134974;27;20031;-67
2023/06/15 07:51:36;;;;;;;6.97;3.92;;;22.90;90.90;;;;;;5116193;27;20045;-67
2023/06/15 07:54:02;;;;;;;5.95;3.75;;;23.20;91.00;;;;;;5134867;27;20039;-67
2023/06/15 07:56:28;;;;;;;7.60;4.10;;;23.20;90.00;;;;;;5134459;27;20035;-67
2023/06/15 07:58:53;;;;;;;5.28;3.88;;;23.40;90.30;;;;;;5134484;27;20035;-68
2023/06/15 08:01:19;;;;;;;6.75;3.42;;;23.90;89.60;;;;;;5134201;27;20484;-68
2023/06/15 08:03:45;;;;;;;4.10;3.67;;;24.20;86.80;;;;;;5134735;27;20384;-68
2023/06/15 08:06:11;;;;;;;3.97;3.60;;;24.40;83.70;;;;;;5116305;28;20042;-68
2023/06/15 08:08:37;;;;;;;5.40;3.58;;;24.30;81.30;;;;;;5134795;27;20027;-68
2023/06/15 08:11:05;;;;;;;4.75;4.05;;;24.20;80.20;;;;;;5134654;27;20118;-67
2023/06/15 08:13:31;;;;;;;4.45;3.67;;;24.10;79.60;;;;;;5134729;27;20088;-68
2023/06/15 08:15:57;;;;;;;5.65;3.85;;;24.10;78.30;;;;;;5134328;28;20039;-68
2023/06/15 08:18:23;;;;;;;3.97;3.67;;;24.40;80.00;;;;;;5134607;28;20110;-68
2023/06/15 08:20:48;;;;;;;6.20;3.58;;;24.60;78.00;;;;;;5134101;28;20049;-68
2023/06/15 08:23:15;;;;;;;9.88;4.18;;;24.70;74.30;;;;;;5134865;28;20031;-68
2023/06/15 08:25:41;;;;;;;5.78;3.72;;;24.60;75.10;;;;;;5134535;28;20028;-68
2023/06/15 08:28:07;;;;;;;4.78;3.58;;;24.40;72.10;;;;;;5134250;28;20098;-68
2023/06/15 08:30:32;;;;;;;6.07;3.70;;;24.60;70.00;;;;;;5134655;28;20088;-68
2023/06/15 08:32:58;;;;;;;5.53;3.53;;;24.50;70.80;;;;;;5134534;28;20039;-68
2023/06/15 08:35:24;;;;;;;4.35;3.95;;;24.60;69.40;;;;;;5134587;28;20062;-68
2023/06/15 08:37:50;;;;;;;4.57;3.58;;;24.70;70.00;;;;;;5134637;28;20479;-68
2023/06/15 08:40:16;;;;;;;3.95;3.22;;;24.80;71.10;;;;;;5134395;28;20039;-68
2023/06/15 08:42:42;;;;;;;4.32;3.17;;;25.00;66.80;;;;;;5116002;28;20050;-68
2023/06/15 08:45:08;;;;;;;3.53;3.22;;;24.70;65.30;;;;;;5134035;28;20031;-68
2023/06/15 08:47:35;;;;;;;6.85;5.03;;;24.70;68.10;;;;;;5134078;28;20473;-67
2023/06/15 08:50:03;;;;;;;3.95;3.42;;;24.80;66.50;;;;;;5115787;28;20534;-67
2023/06/15 08:52:32;;;;;;;4.40;4.00;;;24.70;66.20;;;;;;5134354;28;20031;-69
2023/06/15 08:54:59;;;;;;;4.20;3.65;;;24.70;65.60;;;;;;5134312;28;20037;-69
2023/06/15 08:57:25;;;;;;;4.28;3.88;;;24.60;66.50;;;;;;5134290;28;20438;-67
2023/06/15 08:59:53;;;;;;;5.25;3.60;;;24.80;63.10;;;;;;5134192;28;20028;-67
2023/06/15 09:02:23;;;;;;;5.55;3.80;;;25.10;63.90;;;;;;5134055;28;20035;-67
2023/06/15 09:04:52;;;;;;;4.53;3.38;;;25.60;64.20;;;;;;5134142;28;20032;-67
2023/06/15 09:07:19;;;;;;;;;;;26.20;63.40;;;;;;5116072;28;20080;-67
2023/06/15 09:10:17;;;;;;;6.80;3.97;;;26.70;61.00;;;;;;5134150;28;19903;-67
2023/06/15 09:12:46;;;;;;;3.92;3.63;;;26.90;56.70;;;;;;5137609;27;20114;-67
2023/06/15 09:15:20;;;;;;;5.97;3.90;;;26.20;56.80;;;;;;5119392;27;20023;-68
2023/06/15 09:17:56;;;;;;;5.88;4.28;;;25.80;59.40;;;;;;5137897;27;20484;-67
2023/06/15 09:20:24;;;;;;;4.97;3.25;;;25.90;60.00;;;;;;5137345;27;20104;-67
2023/06/15 09:22:51;;;;;;;6.90;3.50;;;26.20;59.00;;;;;;5119479;27;20032;-69
2023/06/15 09:25:16;;;;;;;5.80;3.65;;;26.50;59.10;;;;;;5137743;27;20042;-68
2023/06/15 09:27:54;;;;;;;5.28;3.95;;;26.70;54.80;;;;;;5137451;27;20031;-68
2023/06/15 09:30:21;;;;;;;9.17;3.83;;;26.60;54.30;;;;;;5119307;27;20103;-68
2023/06/15 09:32:47;;;;;;;4.38;3.95;;;26.60;55.20;;;;;;5137265;27;20389;-69
2023/06/15 09:35:13;;;;;;;4.03;3.35;;;26.50;55.30;;;;;;5137240;27;20039;-69
2023/06/15 09:37:39;;;;;;;6.20;3.38;;;27.00;56.70;;;;;;5137546;27;20426;-69
2023/06/15 09:40:07;;;;;;;3.97;3.67;;;27.20;54.30;;;;;;5137374;27;20038;-68
2023/06/15 09:42:34;;;;;;;4.40;3.97;;;26.90;53.20;;;;;;5118768;27;20032;-69
2023/06/15 09:45:01;;;;;;;5.85;3.80;;;27.10;53.40;;;;;;5119380;27;20035;-69
2023/06/15 09:47:31;;;;;;;4.70;3.58;;;25.90;50.70;;;;;;5137248;27;20039;-67
2023/06/15 09:50:00;;;;;;;4.57;3.67;;;27.80;52.60;;;;;;5119086;27;20188;-67
2023/06/15 09:52:26;;;;;;;5.65;3.45;;;28.30;51.70;;;;;;5137189;27;20031;-69
2023/06/15 09:54:55;;;;;;;5.25;3.33;;;28.60;48.60;;;;;;5137401;27;20057;-68
2023/06/15 09:57:20;;;;;;;;;;;28.80;48.50;;;;;;5137754;27;20080;-67
2023/06/15 09:59:46;;;;;;;5.72;3.25;;;28.80;46.20;;;;;;5137007;27;20314;-67
2023/06/15 10:02:15;;;;;;;3.70;3.28;;;28.40;46.90;;;;;;5136576;27;20035;-67
2023/06/15 10:04:45;;;;;;;4.10;3.63;;;28.30;47.30;;;;;;5136835;27;20039;-67
2023/06/15 10:07:12;;;;;;;3.20;3.00;;;27.90;48.50;;;;;;5137178;27;20019;-68
2023/06/15 10:09:48;;;;;;;4.88;3.33;;;27.90;46.60;;;;;;5136834;27;20118;-69
2023/06/15 10:12:22;;;;;;;6.28;3.70;;;27.90;47.70;;;;;;5136819;27;20035;-69
2023/06/15 10:15:03;;;;;;;7.25;4.00;;;28.20;48.20;;;;;;5136463;27;20035;-68
2023/06/15 10:17:35;;;;;;;3.67;3.38;;;28.30;49.10;;;;;;5117926;27;20152;-69
2023/06/15 10:20:09;;;;;;;4.22;3.47;;;28.90;48.10;;;;;;5118064;27;20058;-69
2023/06/15 10:22:46;;;;;;;3.92;3.55;;;28.90;47.10;;;;;;5117253;27;20281;-69
2023/06/15 10:25:14;;;;;;;3.55;3.25;;;29.10;47.50;;;;;;5136487;27;20038;-68
2023/06/15 10:27:40;;;;;;;3.60;3.30;;;29.20;45.10;;;;;;5136277;27;20027;-68
2023/06/15 10:30:15;;;;;;;3.47;3.08;;;29.20;42.90;;;;;;5136378;27;20519;-69
2023/06/15 10:33:04;;;;;;;4.05;3.55;;;29.30;44.30;;;;;;5136504;27;20088;-69
2023/06/15 10:35:39;;;;;;;4.22;3.30;;;29.20;41.70;;;;;;5136440;27;20027;-67
2023/06/15 10:38:35;;;;;;;4.95;3.65;;;29.20;42.30;;;;;;5135982;27;20399;-69
2023/06/15 10:41:01;;;;;;;4.15;3.70;;;28.60;43.00;;;;;;5117711;27;20070;-69
2023/06/15 10:43:27;;;;;;;4.28;3.75;;;28.40;43.60;;;;;;5136116;27;20080;-67
2023/06/15 10:45:53;;;;;;;3.50;3.20;;;28.60;45.40;;;;;;5136114;27;20524;-67
2023/06/15 10:48:27;;;;;;;6.53;3.60;;;29.10;44.50;;;;;;5136075;27;20457;-69
2023/06/15 10:51:02;;;;;;;3.95;3.67;;;29.20;43.10;;;;;;5136314;27;20388;-67
2023/06/15 10:53:28;;;;;;;4.07;3.72;;;29.50;43.70;;;;;;5136246;27;20399;-67
2023/06/15 10:55:58;;;;;;;4.03;3.72;;;29.20;43.60;;;;;;5135744;27;20039;-68
2023/06/15 10:58:26;;;;;;;4.53;3.95;;;29.20;44.60;;;;;;5117377;27;20122;-68
2023/06/15 11:01:13;;;;;;;3.72;3.22;;;29.70;44.00;;;;;;5135813;27;20039;-69
2023/06/15 11:03:43;;;;;;;6.53;3.75;;;30.00;43.60;;;;;;5135987;27;20031;-69
2023/06/15 11:06:21;;;;;;;3.78;3.40;;;30.40;43.60;;;;;;5135429;27;20038;-69
2023/06/15 11:08:52;;;;;;;6.88;3.58;;;30.50;42.90;;;;;;5135691;27;20114;-69
2023/06/15 11:11:20;;;;;;;3.30;3.08;;;29.70;43.70;;;;;;5135644;27;20031;-68
2023/06/15 11:13:56;;;;;;;;;;;29.70;44.20;;;;;;5117610;27;20035;-69
2023/06/15 11:16:28;;;;;;;3.88;3.40;;;30.20;43.20;;;;;;5117072;27;20396;-69
2023/06/15 11:18:58;;;;;;;5.53;3.33;;;30.60;43.10;;;;;;5116962;27;20053;-70
2023/06/15 11:21:27;;;;;;;3.20;2.78;;;31.10;41.80;;;;;;5135428;27;20035;-70
2023/06/15 11:23:55;;;;;;;4.75;3.33;;;31.30;41.00;;;;;;5116518;27;20038;-70
2023/06/15 11:26:22;;;;;;;3.72;3.42;;;31.60;39.60;;;;;;5135359;27;20036;-70
2023/06/15 11:28:48;;;;;;;4.13;3.25;;;31.20;39.80;;;;;;5135024;27;20038;-71
2023/06/15 11:31:16;;;;;;;3.72;3.38;;;30.90;39.40;;;;;;5135769;27;20372;-70
2023/06/15 11:33:42;;;;;;;4.93;3.78;;;31.00;40.30;;;;;;5116706;27;20080;-70
2023/06/15 11:36:10;;;;;;;3.47;3.17;;;31.00;41.50;;;;;;5116784;27;20039;-69
2023/06/15 11:38:36;;;;;;;3.83;3.08;;;31.50;39.80;;;;;;5134707;27;20469;-70
2023/06/15 11:41:03;;;;;;;3.53;3.22;;;31.70;37.50;;;;;;5135476;27;20121;-69
2023/06/15 11:43:40;;;;;;;3.00;2.78;;;31.80;36.60;;;;;;5135037;27;20080;-70
2023/06/15 11:46:12;;;;;;;3.00;2.80;;;31.10;36.20;;;;;;5135110;27;20088;-70
2023/06/15 11:48:39;;;;;;;3.13;2.92;;;30.80;36.40;;;;;;5135032;27;20076;-68
2023/06/15 11:51:09;;;;;;;3.45;3.00;;;30.90;38.20;;;;;;5134970;27;20138;-68
2023/06/15 11:53:42;;;;;;;3.00;2.75;;;31.60;38.50;;;;;;5134784;27;20031;-69
2023/06/15 11:56:13;;;;;;;2.90;2.70;;;32.30;36.80;;;;;;5135027;27;20035;-69
2023/06/15 11:58:40;;;;;;;3.15;2.85;;;32.60;36.30;;;;;;5134800;27;20028;-70
2023/06/15 12:01:06;;;;;;;3.80;2.53;;;32.70;36.70;;;;;;5134484;27;20038;-70
2023/06/15 12:03:32;;;;;;;2.55;2.45;;;33.00;36.50;;;;;;5134528;27;20034;-70
2023/06/15 12:05:58;;;;;;;3.20;2.42;;;33.30;33.70;;;;;;5135344;27;20356;-70
2023/06/15 12:08:26;;;;;;;2.90;2.50;;;33.40;32.80;;;;;;5134762;27;20037;-70
2023/06/15 12:10:53;;;;;;;2.75;2.55;;;32.80;33.10;;;;;;5134928;27;20132;-69
2023/06/15 12:13:18;;;;;;;4.75;2.90;;;32.60;33.10;;;;;;5134829;27;20068;-67
2023/06/15 12:15:47;;;;;;;5.13;2.80;;;31.90;33.50;;;;;;5116170;28;20494;-70
2023/06/15 12:18:13;;;;;;;3.35;3.05;;;31.50;34.10;;;;;;5134542;28;20046;-70
2023/06/15 12:20:39;;;;;;;3.90;2.90;;;31.60;34.90;;;;;;5115920;28;20047;-69
2023/06/15 12:23:05;;;;;;;7.28;3.35;;;32.00;35.50;;;;;;5134484;28;20113;-69
2023/06/15 12:25:44;;;;;;;3.65;3.35;;;32.40;36.10;;;;;;5134243;28;20088;-69
2023/06/15 12:28:21;;;;;;;3.70;3.08;;;32.40;36.10;;;;;;5134408;28;20023;-68
2023/06/15 12:30:49;;;;;;;4.95;3.20;;;32.50;36.30;;;;;;5134296;28;20035;-69
2023/06/15 12:33:31;;;;;;;4.10;3.53;;;32.40;35.40;;;;;;5134246;28;20027;-70
2023/06/15 12:36:02;;;;;;;3.10;2.83;;;32.20;35.50;;;;;;5134139;28;20253;-68
2023/06/15 12:38:29;;;;;;;6.65;3.45;;;31.80;35.50;;;;;;5134501;28;20055;-67
2023/06/15 12:40:56;;;;;;;5.03;3.10;;;31.50;36.30;;;;;;5134490;28;20049;-68
2023/06/15 12:43:26;;;;;;;4.10;3.78;;;31.30;36.80;;;;;;5134226;28;20473;-69
2023/06/15 12:45:54;;;;;;;6.40;3.83;;;31.10;36.80;;;;;;5135199;27;20080;-67
2023/06/15 12:48:20;;;;;;;3.28;2.92;;;31.00;35.70;;;;;;5138492;27;20034;-70
2023/06/15 12:50:47;;;;;;;2.90;2.70;;;31.80;35.80;;;;;;5120032;27;20133;-69
2023/06/15 12:53:12;;;;;;;4.35;3.05;;;31.90;34.90;;;;;;5138584;27;20088;-69